Time;durP1;ratioP1;P1;durP2;ratioP2;P2;SDS_P1;SDS_P2;PMS_P1;PMS_P2;Temp;Humidity;BMP_temperature;BMP_pressure;BME280_temperature;BME280_humidity;BME280_pressure;Samples;Min_cycle;Max_cycle;Signal;HPM_P1;HPM_P2
2023/10/27 00:02:03;;;;;;;;;;;;;;;;;;4994586;28;20369;-65
2023/10/27 00:04:28;;;;;;;;;;;;;;;;;;4993619;28;20907;-65
2023/10/27 00:06:53;;;;;;;;;;;;;;;;;;5006740;28;19975;-66
2023/10/27 00:09:18;;;;;;;;;;;;;;;;;;4993178;28;19936;-66
2023/10/27 00:11:44;;;;;;;;;;;;;;;;;;5008671;28;19917;-67
2023/10/27 00:14:14;;;;;;;;;;;;;;;;;;5005027;28;19933;-66
2023/10/27 00:16:39;;;;;;;;;;;;;;;;;;5011367;28;20026;-65
2023/10/27 00:19:04;;;;;;;;;;;;;;;;;;5006761;28;19999;-66
2023/10/27 00:21:29;;;;;;;;;;;;;;;;;;5007080;28;19917;-66
2023/10/27 00:23:55;;;;;;;;;;;;;;;;;;5000837;28;19960;-66
2023/10/27 00:26:23;;;;;;;;;;;;;;;;;;5006254;28;20148;-66
2023/10/27 00:28:51;;;;;;;;;;;;;;;;;;5004093;28;19917;-66
2023/10/27 00:31:16;;;;;;;;;;;;;;;;;;4992664;28;19924;-66
2023/10/27 00:33:41;;;;;;;;;;;;;;;;;;4994748;28;20024;-65
2023/10/27 00:36:10;;;;;;;;;;;;;;;;;;5016814;28;19971;-66
2023/10/27 00:38:35;;;;;;;;;;;;;;;;;;5007129;28;20374;-65
2023/10/27 00:41:03;;;;;;;;;;;;;;;;;;5007238;28;19921;-66
2023/10/27 00:43:33;;;;;;;;;;;;;;;;;;5004610;28;20167;-66
2023/10/27 00:46:00;;;;;;;;;;;;;;;;;;5005079;28;19921;-66
2023/10/27 00:48:26;;;;;;;;;;;;;;;;;;5006084;28;20330;-65
2023/10/27 00:50:51;;;;;;;;;;;;;;;;;;5006196;28;19999;-66
2023/10/27 00:53:19;;;;;;;;;;;;;;;;;;5005351;28;19971;-66
2023/10/27 00:55:47;;;;;;;;;;;;;;;;;;5006298;28;19921;-66
2023/10/27 00:58:15;;;;;;;;;;;;;;;;;;5000285;28;20183;-66
2023/10/27 01:00:44;;;;;;;;;;;;;;;;;;5011666;28;19936;-66
2023/10/27 01:03:09;;;;;;;;;;;;;;;;;;4992790;28;19921;-66
2023/10/27 01:05:34;;;;;;;;;;;;;;;;;;5005333;28;20032;-66
2023/10/27 01:08:04;;;;;;;;;;;;;;;;;;5007401;28;20424;-66
2023/10/27 01:10:33;;;;;;;;;;;;;;;;;;5004387;28;19917;-67
2023/10/27 01:12:58;;;;;;;;;;;;;;;;;;5001702;28;20395;-65
2023/10/27 01:15:29;;;;;;;;;;;;;;;;;;4995851;28;20062;-65
2023/10/27 01:17:57;;;;;;;;;;;;;;;;;;4990558;28;19973;-65
2023/10/27 01:20:22;;;;;;;;;;;;;;;;;;5003153;28;19917;-65
2023/10/27 01:22:48;;;;;;;;;;;;;;;;;;5005121;28;19918;-66
2023/10/27 01:25:13;;;;;;;;;;;;;;;;;;4990571;28;19960;-65
2023/10/27 01:27:39;;;;;;;;;;;;;;;;;;5011567;28;20329;-65
2023/10/27 01:30:04;;;;;;;;;;;;;;;;;;4992872;28;19917;-66
2023/10/27 01:32:32;;;;;;;;;;;;;;;;;;5006959;28;19960;-66
2023/10/27 01:34:57;;;;;;;;;;;;;;;;;;5005413;28;19921;-66
2023/10/27 01:37:23;;;;;;;;;;;;;;;;;;4987093;28;20351;-65
2023/10/27 01:39:51;;;;;;;;;;;;;;;;;;4990882;28;19921;-66
2023/10/27 01:42:16;;;;;;;;;;;;;;;;;;4988719;28;20365;-66
2023/10/27 01:44:44;;;;;;;;;;;;;;;;;;5002186;28;20006;-66
2023/10/27 01:47:12;;;;;;;;;;;;;;;;;;4989814;28;20281;-66
2023/10/27 01:49:37;;;;;;;;;;;;;;;;;;4994304;28;19917;-66
2023/10/27 01:52:07;;;;;;;;;;;;;;;;;;4993701;28;19925;-66
2023/10/27 01:54:36;;;;;;;;;;;;;;;;;;4991520;28;19964;-66
2023/10/27 01:57:03;;;;;;;;;;;;;;;;;;5001154;28;19920;-66
2023/10/27 01:59:29;;;;;;;;;;;;;;;;;;5004418;28;19925;-65
2023/10/27 02:01:57;;;;;;;;;;;;;;;;;;4993033;28;20865;-66
2023/10/27 02:04:22;;;;;;;;;;;;;;;;;;5006669;28;20020;-66
2023/10/27 02:06:47;;;;;;;;;;;;;;;;;;4995311;28;19977;-66
2023/10/27 02:09:16;;;;;;;;;;;;;;;;;;5004959;28;19960;-65
2023/10/27 02:11:42;;;;;;;;;;;;;;;;;;5002601;28;20008;-65
2023/10/27 02:14:07;;;;;;;;;;;;;;;;;;5007332;28;20361;-66
2023/10/27 02:16:33;;;;;;;;;;;;;;;;;;5002393;28;19971;-66
2023/10/27 02:18:58;;;;;;;;;;;;;;;;;;4991731;28;19921;-65
2023/10/27 02:21:23;;;;;;;;;;;;;;;;;;5002539;28;20336;-65
2023/10/27 02:23:51;;;;;;;;;;;;;;;;;;4994989;28;19925;-65
2023/10/27 02:26:16;;;;;;;;;;;;;;;;;;5001460;28;19921;-68
2023/10/27 02:28:44;;;;;;;;;;;;;;;;;;4992338;28;19925;-66
2023/10/27 02:31:12;;;;;;;;;;;;;;;;;;5000270;28;19924;-65
2023/10/27 02:33:40;;;;;;;;;;;;;;;;;;5019286;28;19936;-66
2023/10/27 02:36:09;;;;;;;;;;;;;;;;;;5001416;28;19983;-66
2023/10/27 02:38:37;;;;;;;;;;;;;;;;;;5002421;28;19921;-65
2023/10/27 02:41:05;;;;;;;;;;;;;;;;;;5003279;28;20365;-66
2023/10/27 02:46:46;;;;;;;;;;;;;;;;;;5008597;28;19928;-66
2023/10/27 02:49:11;;;;;;;;;;;;;;;;;;5002465;28;20349;-67
2023/10/27 02:51:39;;;;;;;;;;;;;;;;;;4996245;28;19929;-66
2023/10/27 02:54:05;;;;;;;;;;;;;;;;;;5008674;28;19949;-66
2023/10/27 02:56:33;;;;;;;;;;;;;;;;;;5007071;28;20400;-66
2023/10/27 02:58:58;;;;;;;;;;;;;;;;;;4995931;28;20051;-65
2023/10/27 03:01:23;;;;;;;;;;;;;;;;;;5009728;28;19921;-66
2023/10/27 03:03:49;;;;;;;;;;;;;;;;;;5021950;28;20341;-66
2023/10/27 03:06:14;;;;;;;;;;;;;;;;;;4994493;28;20364;-66
2023/10/27 03:08:40;;;;;;;;;;;;;;;;;;5004563;28;19917;-66
2023/10/27 03:11:05;;;;;;;;;;;;;;;;;;4990274;28;19928;-66
2023/10/27 03:13:30;;;;;;;;;;;;;;;;;;4994925;28;19924;-66
2023/10/27 03:15:56;;;;;;;;;;;;;;;;;;5008729;28;19998;-65
2023/10/27 03:18:21;;;;;;;;;;;;;;;;;;5005319;28;19917;-66
2023/10/27 03:20:46;;;;;;;;;;;;;;;;;;4995267;28;19921;-65
2023/10/27 03:23:14;;;;;;;;;;;;;;;;;;4988181;28;19975;-66
2023/10/27 03:25:42;;;;;;;;;;;;;;;;;;5005275;28;19914;-66
2023/10/27 03:28:07;;;;;;;;;;;;;;;;;;5004817;28;19944;-66
2023/10/27 03:30:33;;;;;;;;;;;;;;;;;;5004141;28;19960;-66
2023/10/27 03:32:58;;;;;;;;;;;;;;;;;;5008645;28;20241;-65
2023/10/27 03:35:26;;;;;;;;;;;;;;;;;;4996296;28;19929;-66
2023/10/27 03:37:51;;;;;;;;;;;;;;;;;;4991598;28;19963;-66
2023/10/27 03:40:21;;;;;;;;;;;;;;;;;;5004600;28;19958;-67
2023/10/27 03:42:47;;;;;;;;;;;;;;;;;;4995731;28;19978;-66
2023/10/27 03:45:14;;;;;;;;;;;;;;;;;;5005496;28;19921;-67
2023/10/27 03:47:39;;;;;;;;;;;;;;;;;;5004224;28;20668;-67
2023/10/27 03:50:05;;;;;;;;;;;;;;;;;;5007571;28;19921;-67
2023/10/27 03:52:32;;;;;;;;;;;;;;;;;;5008155;28;19983;-66
2023/10/27 03:54:58;;;;;;;;;;;;;;;;;;5006653;28;20040;-67
2023/10/27 03:57:23;;;;;;;;;;;;;;;;;;5008850;28;20030;-67
2023/10/27 03:59:54;;;;;;;;;;;;;;;;;;4994096;28;20018;-65
2023/10/27 04:02:19;;;;;;;;;;;;;;;;;;4990947;28;20511;-67
2023/10/27 04:04:44;;;;;;;;;;;;;;;;;;4994724;28;19958;-66
2023/10/27 04:07:10;;;;;;;;;;;;;;;;;;5009325;28;19971;-66
2023/10/27 04:09:35;;;;;;;;;;;;;;;;;;5008519;28;19976;-66
2023/10/27 04:12:03;;;;;;;;;;;;;;;;;;5003255;28;19925;-67
2023/10/27 04:14:28;;;;;;;;;;;;;;;;;;5007553;28;19936;-66
2023/10/27 04:16:53;;;;;;;;;;;;;;;;;;5005870;28;20284;-66
2023/10/27 04:19:22;;;;;;;;;;;;;;;;;;5003504;28;20388;-67
2023/10/27 04:21:52;;;;;;;;;;;;;;;;;;4988787;28;19921;-67
2023/10/27 04:24:20;;;;;;;;;;;;;;;;;;5004500;28;20086;-67
2023/10/27 04:26:51;;;;;;;;;;;;;;;;;;5006537;28;20877;-67
2023/10/27 04:29:17;;;;;;;;;;;;;;;;;;4989893;28;20451;-67
2023/10/27 04:31:43;;;;;;;;;;;;;;;;;;4991739;28;20459;-67
2023/10/27 04:34:11;;;;;;;;;;;;;;;;;;5003652;28;20476;-66
2023/10/27 04:36:39;;;;;;;;;;;;;;;;;;5004204;28;19921;-65
2023/10/27 04:39:07;;;;;;;;;;;;;;;;;;5003905;28;19928;-66
2023/10/27 04:41:38;;;;;;;;;;;;;;;;;;5006307;28;19928;-65
2023/10/27 04:44:06;;;;;;;;;;;;;;;;;;4990590;28;20036;-66
2023/10/27 04:46:31;;;;;;;;;;;;;;;;;;4988702;28;19920;-66
2023/10/27 04:49:00;;;;;;;;;;;;;;;;;;5011861;28;19922;-66
2023/10/27 04:51:28;;;;;;;;;;;;;;;;;;5005746;28;20296;-66
2023/10/27 04:53:53;;;;;;;;;;;;;;;;;;5005712;28;19925;-65
2023/10/27 04:56:18;;;;;;;;;;;;;;;;;;5004110;28;20086;-66
2023/10/27 04:58:48;;;;;;;;;;;;;;;;;;4993583;28;19971;-66
2023/10/27 05:01:13;;;;;;;;;;;;;;;;;;4992999;28;20416;-66
2023/10/27 05:03:38;;;;;;;;;;;;;;;;;;5005949;28;20187;-67
2023/10/27 05:06:04;;;;;;;;;;;;;;;;;;4990853;28;19921;-66
2023/10/27 05:08:32;;;;;;;;;;;;;;;;;;5005063;28;19929;-65
2023/10/27 05:11:00;;;;;;;;;;;;;;;;;;5004074;28;20427;-66
2023/10/27 05:13:27;;;;;;;;;;;;;;;;;;4992229;28;19925;-67
2023/10/27 05:15:53;;;;;;;;;;;;;;;;;;5003081;28;19927;-65
2023/10/27 05:18:21;;;;;;;;;;;;;;;;;;4999444;28;19924;-65
2023/10/27 05:20:46;;;;;;;;;;;;;;;;;;5002441;28;20288;-66
2023/10/27 05:23:11;;;;;;;;;;;;;;;;;;4991098;28;19932;-66
2023/10/27 05:25:42;;;;;;;;;;;;;;;;;;5000863;28;19959;-66
2023/10/27 05:28:10;;;;;;;;;;;;;;;;;;5010851;28;19922;-66
2023/10/27 05:30:35;;;;;;;;;;;;;;;;;;4990322;28;21185;-67
2023/10/27 05:33:00;;;;;;;;;;;;;;;;;;5018275;28;19925;-65
2023/10/27 05:35:25;;;;;;;;;;;;;;;;;;5005306;28;19928;-66
2023/10/27 05:37:54;;;;;;;;;;;;;;;;;;5002778;28;19921;-66
2023/10/27 05:40:19;;;;;;;;;;;;;;;;;;4984124;28;19913;-66
2023/10/27 05:42:44;;;;;;;;;;;;;;;;;;4992010;28;19917;-65
2023/10/27 05:45:14;;;;;;;;;;;;;;;;;;4991057;28;20395;-65
2023/10/27 05:47:43;;;;;;;;;;;;;;;;;;5008717;28;19925;-66
2023/10/27 05:50:08;;;;;;;;;;;;;;;;;;4992463;28;19921;-66
2023/10/27 05:52:38;;;;;;;;;;;;;;;;;;5003524;28;19931;-67
2023/10/27 05:55:06;;;;;;;;;;;;;;;;;;5004464;28;20238;-66
2023/10/27 05:57:32;;;;;;;;;;;;;;;;;;5010651;28;20255;-66
2023/10/27 06:00:00;;;;;;;;;;;;;;;;;;4987576;28;20423;-67
2023/10/27 06:05:47;;;;;;;;;;;;;;;;;;5002089;28;20679;-67
2023/10/27 06:08:17;;;;;;;;;;;;;;;;;;5006471;28;20318;-68
2023/10/27 06:10:42;;;;;;;;;;;;;;;;;;4995242;28;19913;-66
2023/10/27 06:13:08;;;;;;;;;;;;;;;;;;5001088;28;19921;-67
2023/10/27 06:15:33;;;;;;;;;;;;;;;;;;5002255;28;19929;-67
2023/10/27 06:17:58;;;;;;;;;;;;;;;;;;4993133;28;19991;-67
2023/10/27 06:20:26;;;;;;;;;;;;;;;;;;5007087;28;20095;-66
2023/10/27 06:22:57;;;;;;;;;;;;;;;;;;5005925;28;20745;-66
2023/10/27 06:25:25;;;;;;;;;;;;;;;;;;5010318;28;20004;-67
2023/10/27 06:27:55;;;;;;;;;;;;;;;;;;5015863;28;20626;-66
2023/10/27 06:30:20;;;;;;;;;;;;;;;;;;5013484;28;19997;-67
2023/10/27 06:32:48;;;;;;;;;;;;;;;;;;5012488;28;19921;-67
2023/10/27 06:35:14;;;;;;;;;;;;;;;;;;5011559;28;19963;-67
2023/10/27 06:37:42;;;;;;;;;;;;;;;;;;5012288;28;19928;-66
2023/10/27 06:40:08;;;;;;;;;;;;;;;;;;5006699;28;19953;-67
2023/10/27 06:42:33;;;;;;;;;;;;;;;;;;5092263;23;19901;-88
2023/10/27 06:45:04;;;;;;;;;;;;;;;;;;5043877;28;20011;-89
2023/10/27 06:47:29;;;;;;;;;;;;;;;;;;5042494;28;19956;-89
2023/10/27 06:49:54;;;;;;;;;;;;;;;;;;5026716;28;19936;-88
2023/10/27 06:52:20;;;;;;;;;;;;;;;;;;5046648;28;19921;-89
2023/10/27 06:54:48;;;;;;;;;;;;;;;;;;5025344;28;19913;-90
2023/10/27 06:57:19;;;;;;;;;;;;;;;;;;5035790;28;19991;-87
2023/10/27 06:59:48;;;;;;;;;;;;;;;;;;5052430;28;19966;-87
2023/10/27 07:02:14;;;;;;;;;;;;;;;;;;5059335;28;19956;-86
2023/10/27 07:04:42;;;;;;;;;;;;;;;;;;5057980;28;19924;-86
2023/10/27 07:07:09;;;;;;;;;;;;;;;;;;5054558;28;19979;-87
2023/10/27 07:09:38;;;;;;;;;;;;;;;;;;5053868;28;19923;-86
2023/10/27 07:12:04;;;;;;;;;;;;;;;;;;5033563;28;19909;-85
2023/10/27 07:14:30;;;;;;;;;;;;;;;;;;5070068;28;19912;-86
2023/10/27 07:16:56;;;;;;;;;;;;;;;;;;5042250;28;19916;-84
2023/10/27 07:19:22;;;;;;;;;;;;;;;;;;5039518;28;19902;-86
2023/10/27 07:21:47;;;;;;;;;;;;;;;;;;5068892;28;19913;-87
2023/10/27 07:24:13;;;;;;;;;;;;;;;;;;5053789;28;20180;-86
2023/10/27 07:26:38;;;;;;;;;;;;;;;;;;5044612;28;19909;-86
2023/10/27 07:29:09;;;;;;;;;;;;;;;;;;5052683;28;19923;-87
2023/10/27 07:31:34;;;;;;;;;;;;;;;;;;5030137;28;19913;-90
2023/10/27 07:34:00;;;;;;;;;;;;;;;;;;5026134;28;19944;-88
2023/10/27 07:36:25;;;;;;;;;;;;;;;;;;5052713;28;19913;-87
2023/10/27 07:38:51;;;;;;;;;;;;;;;;;;5046920;28;19976;-89
2023/10/27 07:41:17;;;;;;;;;;;;;;;;;;5049596;28;20000;-89
2023/10/27 07:43:43;;;;;;;;;;;;;;;;;;5046808;28;19962;-88
2023/10/27 07:46:08;;;;;;;;;;;;;;;;;;5045404;28;19921;-90
2023/10/27 07:48:34;;;;;;;;;;;;;;;;;;5040510;28;19923;-89
2023/10/27 07:51:06;;;;;;;;;;;;;;;;;;5040624;28;19913;-92
2023/10/27 07:53:32;;;;;;;;;;;;;;;;;;5051668;28;19925;-88
2023/10/27 07:55:57;;;;;;;;;;;;;;;;;;5047504;28;19927;-88
2023/10/27 07:58:23;;;;;;;;;;;;;;;;;;5024217;28;19913;-87
2023/10/27 08:00:52;;;;;;;;;;;;;;;;;;5046569;28;19913;-88
2023/10/27 08:03:21;;;;;;;;;;;;;;;;;;5051567;28;19923;-91
2023/10/27 08:05:50;;;;;;;;;;;;;;;;;;5039872;28;19913;-90
2023/10/27 08:08:15;;;;;;;;;;;;;;;;;;5042115;28;20262;-88
2023/10/27 08:10:44;;;;;;;;;;;;;;;;;;5027409;28;20317;-87
2023/10/27 08:13:09;;;;;;;;;;;;;;;;;;5042733;28;20026;-86
2023/10/27 08:15:35;;;;;;;;;;;;;;;;;;5024709;28;19963;-87
2023/10/27 08:18:00;;;;;;;;;;;;;;;;;;5057976;28;20270;-89
2023/10/27 08:20:26;;;;;;;;;;;;;;;;;;5021585;28;19931;-88
2023/10/27 08:22:51;;;;;;;;;;;;;;;;;;5048931;28;19913;-88
2023/10/27 08:25:17;;;;;;;;;;;;;;;;;;5042543;28;19915;-89
2023/10/27 08:27:42;;;;;;;;;;;;;;;;;;5049118;28;19986;-89
2023/10/27 08:30:08;;;;;;;;;;;;;;;;;;5043733;28;19955;-88
2023/10/27 08:32:33;;;;;;;;;;;;;;;;;;5023386;28;20346;-90
2023/10/27 08:34:58;;;;;;;;;;;;;;;;;;5048206;28;20248;-90
2023/10/27 08:37:25;;;;;;;;;;;;;;;;;;5051278;28;19916;-89
2023/10/27 08:39:54;;;;;;;;;;;;;;;;;;5027679;28;19917;-86
2023/10/27 08:42:19;;;;;;;;;;;;;;;;;;5040310;28;19939;-88
2023/10/27 08:44:45;;;;;;;;;;;;;;;;;;5023769;28;19921;-87
2023/10/27 08:47:10;;;;;;;;;;;;;;;;;;5042382;28;19916;-88
2023/10/27 08:49:39;;;;;;;;;;;;;;;;;;5030432;28;19912;-89
2023/10/27 08:52:08;;;;;;;;;;;;;;;;;;5039657;28;19982;-88
2023/10/27 08:54:33;;;;;;;;;;;;;;;;;;5032139;28;19925;-89
2023/10/27 08:56:59;;;;;;;;;;;;;;;;;;5042400;28;19928;-86
2023/10/27 08:59:24;;;;;;;;;;;;;;;;;;5026793;28;20873;-88
2023/10/27 09:01:52;;;;;;;;;;;;;;;;;;5032860;28;19943;-89
2023/10/27 09:04:23;;;;;;;;;;;;;;;;;;5050967;28;19924;-88
2023/10/27 09:06:49;;;;;;;;;;;;;;;;;;5030446;28;19924;-89
2023/10/27 09:09:15;;;;;;;;;;;;;;;;;;5049942;28;19919;-87
2023/10/27 09:11:41;;;;;;;;;;;;;;;;;;5059621;28;19917;-88
2023/10/27 09:14:09;;;;;;;;;;;;;;;;;;5025190;28;19974;-88
2023/10/27 09:16:34;;;;;;;;;;;;;;;;;;5050163;28;19939;-90
2023/10/27 09:19:03;;;;;;;;;;;;;;;;;;5046397;28;19988;-90
2023/10/27 09:21:29;;;;;;;;;;;;;;;;;;5053549;28;19924;-86
2023/10/27 09:23:55;;;;;;;;;;;;;;;;;;5050002;28;19909;-86
2023/10/27 09:26:31;;;;;;;;;;;;;;;;;;5050799;28;19913;-91
2023/10/27 09:28:56;;;;;;;;;;;;;;;;;;5031662;28;19913;-91
2023/10/27 09:31:22;;;;;;;;;;;;;;;;;;5030278;28;19972;-87
2023/10/27 09:33:50;;;;;;;;;;;;;;;;;;5044240;28;19924;-89
2023/10/27 09:36:15;;;;;;;;;;;;;;;;;;5031928;28;20011;-90
2023/10/27 09:38:41;;;;;;;;;;;;;;;;;;5046642;28;20388;-87
2023/10/27 09:41:06;;;;;;;;;;;;;;;;;;5025746;28;20107;-90
2023/10/27 09:43:33;;;;;;;;;;;;;;;;;;5042156;28;19913;-88
2023/10/27 09:46:02;;;;;;;;;;;;;;;;;;5053178;28;19939;-88
2023/10/27 09:48:28;;;;;;;;;;;;;;;;;;5041501;28;19913;-91
2023/10/27 09:50:53;;;;;;;;;;;;;;;;;;5038385;28;20401;-86
2023/10/27 09:53:18;;;;;;;;;;;;;;;;;;5020081;28;21767;-90
2023/10/27 09:55:45;;;;;;;;;;;;;;;;;;5022476;28;19925;-90
2023/10/27 09:58:11;;;;;;;;;;;;;;;;;;5042277;28;19913;-90
2023/10/27 10:00:37;;;;;;;;;;;;;;;;;;5026517;28;19920;-89
2023/10/27 10:03:03;;;;;;;;;;;;;;;;;;5039712;28;20222;-93
2023/10/27 10:05:28;;;;;;;;;;;;;;;;;;5050079;28;19920;-90
2023/10/27 10:08:00;;;;;;;;;;;;;;;;;;5024324;28;19913;-87
2023/10/27 10:10:35;;;;;;;;;;;;;;;;;;5039747;28;19974;-91
2023/10/27 10:13:01;;;;;;;;;;;;;;;;;;5050539;28;19920;-89
2023/10/27 10:15:27;;;;;;;;;;;;;;;;;;5034672;28;19923;-90
2023/10/27 10:17:52;;;;;;;;;;;;;;;;;;5022487;28;19995;-92
2023/10/27 10:20:21;;;;;;;;;;;;;;;;;;5020013;28;19978;-89
2023/10/27 10:22:46;;;;;;;;;;;;;;;;;;5021729;28;19921;-89
2023/10/27 10:25:12;;;;;;;;;;;;;;;;;;5020634;28;19920;-88
2023/10/27 10:27:37;;;;;;;;;;;;;;;;;;5021983;28;19955;-91
2023/10/27 10:30:02;;;;;;;;;;;;;;;;;;5021102;28;19952;-89
2023/10/27 10:32:28;;;;;;;;;;;;;;;;;;5026829;28;19930;-92
2023/10/27 10:34:53;;;;;;;;;;;;;;;;;;5023139;28;19913;-90
2023/10/27 10:37:18;;;;;;;;;;;;;;;;;;5024440;28;20306;-90
2023/10/27 10:39:44;;;;;;;;;;;;;;;;;;5021428;28;19957;-90
2023/10/27 10:42:14;;;;;;;;;;;;;;;;;;5040429;28;19923;-90
2023/10/27 10:44:39;;;;;;;;;;;;;;;;;;5029245;28;19925;-89
2023/10/27 10:47:06;;;;;;;;;;;;;;;;;;5026422;28;19924;-89
2023/10/27 10:49:31;;;;;;;;;;;;;;;;;;5019357;28;19920;-89
2023/10/27 10:51:57;;;;;;;;;;;;;;;;;;5039561;28;20028;-89
2023/10/27 10:54:22;;;;;;;;;;;;;;;;;;5021907;28;19921;-90
2023/10/27 10:56:50;;;;;;;;;;;;;;;;;;5037353;28;19917;-89
2023/10/27 10:59:17;;;;;;;;;;;;;;;;;;5026049;28;19979;-90
2023/10/27 11:01:46;;;;;;;;;;;;;;;;;;5022423;28;19941;-87
2023/10/27 11:04:11;;;;;;;;;;;;;;;;;;5018939;28;20319;-90
2023/10/27 11:06:36;;;;;;;;;;;;;;;;;;5018406;28;19982;-87
2023/10/27 11:09:05;;;;;;;;;;;;;;;;;;5019854;28;19909;-91
2023/10/27 11:11:31;;;;;;;;;;;;;;;;;;5036272;28;19924;-90
2023/10/27 11:13:57;;;;;;;;;;;;;;;;;;5029005;28;19912;-87
2023/10/27 11:16:22;;;;;;;;;;;;;;;;;;5034076;28;19912;-89
2023/10/27 11:18:52;;;;;;;;;;;;;;;;;;5047125;28;19927;-88
2023/10/27 11:21:18;;;;;;;;;;;;;;;;;;5046419;28;19941;-88
2023/10/27 11:23:54;;;;;;;;;;;;;;;;;;5037244;28;19969;-90
2023/10/27 11:26:30;;;;;;;;;;;;;;;;;;5034531;28;19912;-90
2023/10/27 11:29:34;;;;;;;;;;;;;;;;;;;;;
2023/10/27 11:32:09;;;;;;;;;;;;;;;;;;5044919;28;19966;-89
2023/10/27 11:34:37;;;;;;;;;;;;;;;;;;5026039;28;19928;-89
2023/10/27 11:37:05;;;;;;;;;;;;;;;;;;5041102;28;19917;-89
2023/10/27 11:39:30;;;;;;;;;;;;;;;;;;5039161;28;19999;-87
2023/10/27 11:41:59;;;;;;;;;;;;;;;;;;5027641;28;19975;-90
2023/10/27 11:44:25;;;;;;;;;;;;;;;;;;5027374;28;19916;-88
2023/10/27 11:46:50;;;;;;;;;;;;;;;;;;5021987;28;19917;-90
2023/10/27 11:52:34;;;;;;;;;;;;;;;;;;5039537;28;19923;-88
2023/10/27 11:55:01;;;;;;;;;;;;;;;;;;5027922;28;19913;-88
2023/10/27 11:57:26;;;;;;;;;;;;;;;;;;5028356;28;20779;-90
2023/10/27 11:59:51;;;;;;;;;;;;;;;;;;5025889;28;19917;-87
2023/10/27 12:02:20;;;;;;;;;;;;;;;;;;5024580;28;20358;-89
2023/10/27 12:04:45;;;;;;;;;;;;;;;;;;5039961;28;19955;-88
2023/10/27 12:07:16;;;;;;;;;;;;;;;;;;5022987;28;20435;-89
2023/10/27 12:09:41;;;;;;;;;;;;;;;;;;5027317;28;19949;-88
2023/10/27 12:12:08;;;;;;;;;;;;;;;;;;5025947;28;19917;-86
2023/10/27 12:14:34;;;;;;;;;;;;;;;;;;5024476;28;19917;-88
2023/10/27 12:17:00;;;;;;;;;;;;;;;;;;5023651;28;19917;-87
2023/10/27 12:19:29;;;;;;;;;;;;;;;;;;5021962;28;19917;-87
2023/10/27 12:21:57;;;;;;;;;;;;;;;;;;5019692;28;20284;-89
2023/10/27 12:24:23;;;;;;;;;;;;;;;;;;5035269;28;19953;-87
2023/10/27 12:26:48;;;;;;;;;;;;;;;;;;5027650;28;19925;-90
2023/10/27 12:29:17;;;;;;;;;;;;;;;;;;5025492;28;19917;-88
2023/10/27 12:31:43;;;;;;;;;;;;;;;;;;5022665;28;20414;-88
2023/10/27 12:34:08;;;;;;;;;;;;;;;;;;5020368;28;19948;-88
2023/10/27 12:36:34;;;;;;;;;;;;;;;;;;5041651;28;19913;-89
2023/10/27 12:39:02;;;;;;;;;;;;;;;;;;5037550;28;19956;-89
2023/10/27 12:41:27;;;;;;;;;;;;;;;;;;5023179;28;19963;-89
2023/10/27 12:43:52;;;;;;;;;;;;;;;;;;5054398;28;19913;-90
2023/10/27 12:46:17;;;;;;;;;;;;;;;;;;5027495;28;19917;-90
2023/10/27 12:48:43;;;;;;;;;;;;;;;;;;5023171;28;19977;-89
2023/10/27 12:51:08;;;;;;;;;;;;;;;;;;5039752;28;20854;-87
2023/10/27 12:53:35;;;;;;;;;;;;;;;;;;5024078;28;19960;-90
2023/10/27 12:56:00;;;;;;;;;;;;;;;;;;5007455;28;19909;-87
2023/10/27 12:58:28;;;;;;;;;;;;;;;;;;5020108;28;19913;-88
2023/10/27 13:00:55;;;;;;;;;;;;;;;;;;5036342;28;19920;-90
2023/10/27 13:03:23;;;;;;;;;;;;;;;;;;5022443;28;19924;-89
2023/10/27 13:05:48;;;;;;;;;;;;;;;;;;5025485;28;19920;-90
2023/10/27 13:08:15;;;;;;;;;;;;;;;;;;5025709;28;19917;-89
2023/10/27 13:10:40;;;;;;;;;;;;;;;;;;5023213;28;19966;-91
2023/10/27 13:13:05;;;;;;;;;;;;;;;;;;5001810;28;19917;-88
2023/10/27 13:15:35;;;;;;;;;;;;;;;;;;5017375;28;20355;-90
2023/10/27 13:18:03;;;;;;;;;;;;;;;;;;5024194;28;20309;-88
2023/10/27 13:20:28;;;;;;;;;;;;;;;;;;5032459;28;19923;-87
2023/10/27 13:22:56;;;;;;;;;;;;;;;;;;5007081;28;19913;-88
2023/10/27 13:25:22;;;;;;;;;;;;;;;;;;5017209;28;20402;-88
2023/10/27 13:27:48;;;;;;;;;;;;;;;;;;5024340;28;19963;-87
2023/10/27 13:30:16;;;;;;;;;;;;;;;;;;5023060;28;19909;-89
2023/10/27 13:32:42;;;;;;;;;;;;;;;;;;5023102;28;19966;-88
2023/10/27 13:35:07;;;;;;;;;;;;;;;;;;5021183;28;19917;-88
2023/10/27 13:37:33;;;;;;;;;;;;;;;;;;5019735;28;19913;-88
2023/10/27 13:39:59;;;;;;;;;;;;;;;;;;5034468;28;19971;-86
2023/10/27 13:42:27;;;;;;;;;;;;;;;;;;5021068;28;19913;-88
2023/10/27 13:45:00;;;;;;;;;;;;;;;;;;5019890;28;19991;-89
2023/10/27 13:47:27;;;;;;;;;;;;;;;;;;5028237;28;19975;-90
2023/10/27 13:49:53;;;;;;;;;;;;;;;;;;5025680;28;19928;-86
2023/10/27 13:52:21;;;;;;;;;;;;;;;;;;5020310;28;19913;-88
2023/10/27 13:55:08;;;;;;;;;;;;;;;;;;5026522;28;19985;-87
2023/10/27 13:57:34;;;;;;;;;;;;;;;;;;5031907;28;20302;-90
2023/10/27 14:00:04;;;;;;;;;;;;;;;;;;5009953;28;20019;-88
2023/10/27 14:02:32;;;;;;;;;;;;;;;;;;5030282;28;19925;-89
2023/10/27 14:04:57;;;;;;;;;;;;;;;;;;5013698;28;20303;-87
2023/10/27 14:08:14;;;;;;;;;;;;;;;;;;5031787;28;19920;-88
2023/10/27 14:10:18;;;;;;;;;;;;;;;;;;5029539;28;19913;-88
2023/10/27 14:12:44;;;;;;;;;;;;;;;;;;5031972;28;20239;-89
2023/10/27 14:15:13;;;;;;;;;;;;;;;;;;5015613;28;19917;-88
2023/10/27 14:17:44;;;;;;;;;;;;;;;;;;5015338;28;19932;-89
2023/10/27 14:20:18;;;;;;;;;;;;;;;;;;5014259;28;19913;-90
2023/10/27 14:22:55;;;;;;;;;;;;;;;;;;5011966;28;19971;-87
2023/10/27 14:25:38;;;;;;;;;;;;;;;;;;5015676;28;20046;-88
2023/10/27 14:28:09;;;;;;;;;;;;;;;;;;5015423;28;19956;-85
2023/10/27 14:31:35;;;;;;;;;;;;;;;;;;4949336;28;20260;-88
2023/10/27 14:34:07;;;;;;;;;;;;;;;;;;4951530;28;20011;-86
2023/10/27 14:36:32;;;;;;;;;;;;;;;;;;4983677;28;19929;-86
2023/10/27 14:38:57;;;;;;;;;;;;;;;;;;5021848;28;19913;-84
2023/10/27 14:41:24;;;;;;;;;;;;;;;;;;5045776;28;19948;-84
2023/10/27 14:43:50;;;;;;;;;;;;;;;;;;5053787;28;19909;-85
2023/10/27 14:46:16;;;;;;;;;;;;;;;;;;5051773;28;19917;-87
2023/10/27 14:48:48;;;;;;;;;;;;;;;;;;5034698;28;20053;-87
2023/10/27 14:51:16;;;;;;;;;;;;;;;;;;5052167;28;19913;-86
2023/10/27 14:53:42;;;;;;;;;;;;;;;;;;5035975;28;19939;-88
2023/10/27 14:56:10;;;;;;;;;;;;;;;;;;5054228;28;19913;-85
2023/10/27 14:58:38;;;;;;;;;;;;;;;;;;5039321;28;19995;-86
2023/10/27 15:01:04;;;;;;;;;;;;;;;;;;5038119;28;19913;-86
2023/10/27 15:03:32;;;;;;;;;;;;;;;;;;5038265;28;19913;-85
2023/10/27 15:05:58;;;;;;;;;;;;;;;;;;5055586;28;19925;-87
2023/10/27 15:08:23;;;;;;;;;;;;;;;;;;5038499;28;19980;-87
2023/10/27 15:10:52;;;;;;;;;;;;;;;;;;5033062;28;20309;-86
2023/10/27 15:13:21;;;;;;;;;;;;;;;;;;5026154;28;19948;-90
2023/10/27 15:15:46;;;;;;;;;;;;;;;;;;5041605;28;19920;-89
2023/10/27 15:18:36;;;;;;;;;;;;;;;;;;5036484;28;19971;-88
2023/10/27 15:24:17;;;;;;;;;;;;;;;;;;5035473;28;19964;-88
2023/10/27 15:26:44;;;;;;;;;;;;;;;;;;5022396;28;19917;-89
2023/10/27 15:29:19;;;;;;;;;;;;;;;;;;5024446;28;20607;-89
2023/10/27 15:31:47;;;;;;;;;;;;;;;;;;5030213;28;19917;-89
2023/10/27 15:34:15;;;;;;;;;;;;;;;;;;5037348;28;19963;-90
2023/10/27 15:36:40;;;;;;;;;;;;;;;;;;5036290;28;19963;-89
2023/10/27 15:39:08;;;;;;;;;;;;;;;;;;5038696;28;19921;-88
2023/10/27 15:41:39;;;;;;;;;;;;;;;;;;5020267;28;19913;-87
2023/10/27 15:46:51;;;;;;;;;;;;;;;;;;5056492;28;19921;-85
2023/10/27 15:49:20;;;;;;;;;;;;;;;;;;5041166;28;19919;-87
2023/10/27 15:51:45;;;;;;;;;;;;;;;;;;5045403;28;19913;-88
2023/10/27 15:57:41;;;;;;;;;;;;;;;;;;5055840;28;19939;-88
2023/10/27 16:00:10;;;;;;;;;;;;;;;;;;5059356;28;19928;-89
2023/10/27 16:02:35;;;;;;;;;;;;;;;;;;5037080;28;19951;-87
2023/10/27 16:05:01;;;;;;;;;;;;;;;;;;5060101;28;19913;-87
2023/10/27 16:07:27;;;;;;;;;;;;;;;;;;5053509;28;19913;-89
2023/10/27 16:09:53;;;;;;;;;;;;;;;;;;5045726;28;20052;-89
2023/10/27 16:12:18;;;;;;;;;;;;;;;;;;5027319;28;20015;-88
2023/10/27 16:14:45;;;;;;;;;;;;;;;;;;5045410;28;20680;-86
2023/10/27 16:17:13;;;;;;;;;;;;;;;;;;5027466;28;19971;-89
2023/10/27 16:19:38;;;;;;;;;;;;;;;;;;5026415;28;19932;-90
2023/10/27 16:22:03;;;;;;;;;;;;;;;;;;5025951;28;19992;-86
2023/10/27 16:24:44;;;;;;;;;;;;;;;;;;5044421;28;19936;-88
2023/10/27 16:30:35;;;;;;;;;;;;;;;;;;5050772;28;20019;-87
2023/10/27 16:33:05;;;;;;;;;;;;;;;;;;5037924;28;19950;-89
2023/10/27 16:35:34;;;;;;;;;;;;;;;;;;5047646;28;19917;-87
2023/10/27 16:38:01;;;;;;;;;;;;;;;;;;5041979;28;19966;-88
2023/10/27 16:40:39;;;;;;;;;;;;;;;;;;5034789;28;19918;-87
2023/10/27 16:43:11;;;;;;;;;;;;;;;;;;5046383;28;19980;-85
2023/10/27 16:45:37;;;;;;;;;;;;;;;;;;5036388;28;19921;-87
2023/10/27 16:48:23;;;;;;;;;;;;;;;;;;5035219;28;19985;-83
2023/10/27 16:53:53;;;;;;;;;;;;;;;;;;5033449;28;19917;-87
2023/10/27 16:56:32;;;;;;;;;;;;;;;;;;5015772;28;20586;-86
2023/10/27 16:58:57;;;;;;;;;;;;;;;;;;5018111;28;20020;-87
2023/10/27 17:01:32;;;;;;;;;;;;;;;;;;5031937;28;19909;-87
2023/10/27 17:03:57;;;;;;;;;;;;;;;;;;5015232;28;19928;-89
2023/10/27 17:06:25;;;;;;;;;;;;;;;;;;5016715;28;19913;-84
2023/10/27 17:08:51;;;;;;;;;;;;;;;;;;5014920;28;20430;-85
2023/10/27 17:11:19;;;;;;;;;;;;;;;;;;5033632;28;20362;-85
2023/10/27 17:13:54;;;;;;;;;;;;;;;;;;5032365;28;19924;-86